sensor_id;sensor_type;location;lat;lon;timestamp;P1;durP1;ratioP1;P2;durP2;ratioP2
54157;SDS011;40065;49.894;10.358;2022-07-03T00:02:14;2.10;;;0.80;;
54157;SDS011;40065;49.894;10.358;2022-07-03T00:07:16;1.42;;;0.90;;
54157;SDS011;40065;49.894;10.358;2022-07-03T00:12:18;1.50;;;0.90;;
54157;SDS011;40065;49.894;10.358;2022-07-03T00:17:20;1.17;;;0.85;;
54157;SDS011;40065;49.894;10.358;2022-07-03T00:22:23;1.35;;;0.90;;
54157;SDS011;40065;49.894;10.358;2022-07-03T00:27:27;1.90;;;1.10;;
54157;SDS011;40065;49.894;10.358;2022-07-03T00:32:29;1.40;;;1.00;;
54157;SDS011;40065;49.894;10.358;2022-07-03T00:37:31;1.50;;;1.10;;
54157;SDS011;40065;49.894;10.358;2022-07-03T00:42:34;1.55;;;1.05;;
54157;SDS011;40065;49.894;10.358;2022-07-03T00:47:40;1.75;;;1.00;;
54157;SDS011;40065;49.894;10.358;2022-07-03T00:52:45;1.40;;;1.00;;
54157;SDS011;40065;49.894;10.358;2022-07-03T00:57:49;2.67;;;1.30;;
54157;SDS011;40065;49.894;10.358;2022-07-03T01:02:51;1.60;;;1.20;;
54157;SDS011;40065;49.894;10.358;2022-07-03T01:08:01;1.88;;;1.40;;
54157;SDS011;40065;49.894;10.358;2022-07-03T01:13:24;1.17;;;1.00;;
54157;SDS011;40065;49.894;10.358;2022-07-03T01:29:25;1.98;;;1.27;;
54157;SDS011;40065;49.894;10.358;2022-07-03T01:34:48;1.63;;;1.30;;
54157;SDS011;40065;49.894;10.358;2022-07-03T01:39:53;1.40;;;1.05;;
54157;SDS011;40065;49.894;10.358;2022-07-03T01:44:59;1.38;;;1.00;;
54157;SDS011;40065;49.894;10.358;2022-07-03T01:50:01;1.60;;;1.20;;
54157;SDS011;40065;49.894;10.358;2022-07-03T01:55:03;1.60;;;1.10;;
54157;SDS011;40065;49.894;10.358;2022-07-03T02:00:06;3.05;;;1.90;;
54157;SDS011;40065;49.894;10.358;2022-07-03T02:05:32;1.58;;;1.30;;
54157;SDS011;40065;49.894;10.358;2022-07-03T02:10:47;2.58;;;1.73;;
54157;SDS011;40065;49.894;10.358;2022-07-03T02:16:04;3.20;;;1.55;;
54157;SDS011;40065;49.894;10.358;2022-07-03T02:21:16;2.78;;;1.75;;
54157;SDS011;40065;49.894;10.358;2022-07-03T02:26:21;2.60;;;1.50;;
54157;SDS011;40065;49.894;10.358;2022-07-03T02:31:31;2.13;;;1.48;;
54157;SDS011;40065;49.894;10.358;2022-07-03T02:36:46;2.10;;;1.50;;
54157;SDS011;40065;49.894;10.358;2022-07-03T02:42:02;1.80;;;1.30;;
54157;SDS011;40065;49.894;10.358;2022-07-03T02:52:24;3.35;;;1.42;;
54157;SDS011;40065;49.894;10.358;2022-07-03T02:57:37;2.30;;;1.38;;
54157;SDS011;40065;49.894;10.358;2022-07-03T03:02:49;1.85;;;1.40;;
54157;SDS011;40065;49.894;10.358;2022-07-03T03:08:11;2.40;;;1.83;;
54157;SDS011;40065;49.894;10.358;2022-07-03T03:13:14;2.28;;;1.50;;
54157;SDS011;40065;49.894;10.358;2022-07-03T03:18:21;2.15;;;1.70;;
54157;SDS011;40065;49.894;10.358;2022-07-03T03:23:34;1.90;;;1.38;;
54157;SDS011;40065;49.894;10.358;2022-07-03T03:28:43;1.88;;;1.40;;
54157;SDS011;40065;49.894;10.358;2022-07-03T03:33:46;3.65;;;1.40;;
54157;SDS011;40065;49.894;10.358;2022-07-03T03:43:51;2.20;;;1.60;;
54157;SDS011;40065;49.894;10.358;2022-07-03T03:48:53;2.47;;;1.50;;
54157;SDS011;40065;49.894;10.358;2022-07-03T03:53:55;1.88;;;1.40;;
54157;SDS011;40065;49.894;10.358;2022-07-03T03:58:57;2.20;;;1.55;;
54157;SDS011;40065;49.894;10.358;2022-07-03T04:03:59;2.17;;;1.42;;
54157;SDS011;40065;49.894;10.358;2022-07-03T04:09:01;2.55;;;1.95;;
54157;SDS011;40065;49.894;10.358;2022-07-03T04:14:03;6.13;;;2.00;;
54157;SDS011;40065;49.894;10.358;2022-07-03T04:19:04;3.70;;;2.10;;
54157;SDS011;40065;49.894;10.358;2022-07-03T04:24:06;2.00;;;1.60;;
54157;SDS011;40065;49.894;10.358;2022-07-03T04:29:08;2.40;;;1.58;;
54157;SDS011;40065;49.894;10.358;2022-07-03T04:34:10;2.00;;;1.50;;
54157;SDS011;40065;49.894;10.358;2022-07-03T04:39:13;3.83;;;1.92;;
54157;SDS011;40065;49.894;10.358;2022-07-03T04:44:15;2.33;;;1.50;;
54157;SDS011;40065;49.894;10.358;2022-07-03T04:49:17;5.90;;;1.67;;
54157;SDS011;40065;49.894;10.358;2022-07-03T04:54:18;1.98;;;1.40;;
54157;SDS011;40065;49.894;10.358;2022-07-03T04:59:20;2.17;;;1.67;;
54157;SDS011;40065;49.894;10.358;2022-07-03T05:04:22;2.28;;;1.70;;
54157;SDS011;40065;49.894;10.358;2022-07-03T05:09:24;3.15;;;1.70;;
54157;SDS011;40065;49.894;10.358;2022-07-03T05:14:26;2.47;;;1.30;;
54157;SDS011;40065;49.894;10.358;2022-07-03T05:19:29;1.93;;;1.57;;
54157;SDS011;40065;49.894;10.358;2022-07-03T05:24:30;2.08;;;1.50;;
54157;SDS011;40065;49.894;10.358;2022-07-03T05:29:32;3.63;;;1.65;;
54157;SDS011;40065;49.894;10.358;2022-07-03T05:34:39;3.55;;;1.45;;
54157;SDS011;40065;49.894;10.358;2022-07-03T05:39:40;1.73;;;1.30;;
54157;SDS011;40065;49.894;10.358;2022-07-03T05:44:43;2.45;;;1.10;;
54157;SDS011;40065;49.894;10.358;2022-07-03T05:49:45;1.73;;;1.30;;
54157;SDS011;40065;49.894;10.358;2022-07-03T05:54:48;1.88;;;1.33;;
54157;SDS011;40065;49.894;10.358;2022-07-03T05:59:49;2.67;;;1.67;;
54157;SDS011;40065;49.894;10.358;2022-07-03T06:04:51;1.85;;;1.20;;
54157;SDS011;40065;49.894;10.358;2022-07-03T06:09:53;2.28;;;1.30;;
54157;SDS011;40065;49.894;10.358;2022-07-03T06:14:55;1.95;;;1.20;;
54157;SDS011;40065;49.894;10.358;2022-07-03T06:20:05;2.22;;;1.30;;
54157;SDS011;40065;49.894;10.358;2022-07-03T06:25:08;2.00;;;1.20;;
54157;SDS011;40065;49.894;10.358;2022-07-03T06:30:10;2.33;;;1.20;;
54157;SDS011;40065;49.894;10.358;2022-07-03T06:35:12;3.03;;;1.20;;
54157;SDS011;40065;49.894;10.358;2022-07-03T06:40:14;2.35;;;0.95;;
54157;SDS011;40065;49.894;10.358;2022-07-03T06:45:16;2.28;;;1.00;;
54157;SDS011;40065;49.894;10.358;2022-07-03T06:50:18;3.15;;;1.15;;
54157;SDS011;40065;49.894;10.358;2022-07-03T06:55:20;1.73;;;1.20;;
54157;SDS011;40065;49.894;10.358;2022-07-03T07:00:22;1.70;;;1.00;;
54157;SDS011;40065;49.894;10.358;2022-07-03T07:05:24;2.50;;;1.20;;
54157;SDS011;40065;49.894;10.358;2022-07-03T07:10:26;2.20;;;0.90;;
54157;SDS011;40065;49.894;10.358;2022-07-03T07:15:27;2.30;;;1.40;;
54157;SDS011;40065;49.894;10.358;2022-07-03T07:20:29;2.08;;;1.10;;
54157;SDS011;40065;49.894;10.358;2022-07-03T07:25:31;3.72;;;1.40;;
54157;SDS011;40065;49.894;10.358;2022-07-03T07:30:33;3.05;;;1.10;;
54157;SDS011;40065;49.894;10.358;2022-07-03T07:35:35;2.15;;;1.33;;
54157;SDS011;40065;49.894;10.358;2022-07-03T07:40:37;4.87;;;1.30;;
54157;SDS011;40065;49.894;10.358;2022-07-03T07:45:39;2.17;;;1.13;;
54157;SDS011;40065;49.894;10.358;2022-07-03T07:50:43;2.33;;;1.00;;
54157;SDS011;40065;49.894;10.358;2022-07-03T07:55:45;3.05;;;1.00;;
54157;SDS011;40065;49.894;10.358;2022-07-03T08:00:46;2.35;;;0.88;;
54157;SDS011;40065;49.894;10.358;2022-07-03T08:06:09;1.65;;;1.13;;
54157;SDS011;40065;49.894;10.358;2022-07-03T08:11:11;2.25;;;1.10;;
54157;SDS011;40065;49.894;10.358;2022-07-03T08:16:13;2.30;;;1.10;;
54157;SDS011;40065;49.894;10.358;2022-07-03T08:21:15;1.92;;;1.13;;
54157;SDS011;40065;49.894;10.358;2022-07-03T08:26:19;2.35;;;1.27;;
54157;SDS011;40065;49.894;10.358;2022-07-03T08:31:21;1.67;;;0.90;;
54157;SDS011;40065;49.894;10.358;2022-07-03T08:36:23;2.27;;;1.03;;
54157;SDS011;40065;49.894;10.358;2022-07-03T08:41:25;1.65;;;0.98;;
54157;SDS011;40065;49.894;10.358;2022-07-03T08:46:28;2.83;;;0.90;;
54157;SDS011;40065;49.894;10.358;2022-07-03T08:51:34;3.17;;;0.90;;
54157;SDS011;40065;49.894;10.358;2022-07-03T08:56:36;2.33;;;0.98;;
54157;SDS011;40065;49.894;10.358;2022-07-03T09:01:39;2.17;;;0.80;;
54157;SDS011;40065;49.894;10.358;2022-07-03T09:06:45;2.05;;;0.90;;
54157;SDS011;40065;49.894;10.358;2022-07-03T09:11:47;2.70;;;0.83;;
54157;SDS011;40065;49.894;10.358;2022-07-03T09:16:49;2.10;;;0.88;;
54157;SDS011;40065;49.894;10.358;2022-07-03T09:21:51;2.22;;;0.80;;
54157;SDS011;40065;49.894;10.358;2022-07-03T09:26:53;1.77;;;0.80;;
54157;SDS011;40065;49.894;10.358;2022-07-03T09:31:55;1.90;;;0.60;;
54157;SDS011;40065;49.894;10.358;2022-07-03T09:36:57;2.20;;;0.98;;
54157;SDS011;40065;49.894;10.358;2022-07-03T09:47:05;1.75;;;0.85;;
54157;SDS011;40065;49.894;10.358;2022-07-03T09:52:33;1.50;;;0.73;;
54157;SDS011;40065;49.894;10.358;2022-07-03T09:57:40;2.20;;;0.73;;
54157;SDS011;40065;49.894;10.358;2022-07-03T10:08:07;2.80;;;0.50;;
54157;SDS011;40065;49.894;10.358;2022-07-03T10:13:10;1.40;;;0.68;;
54157;SDS011;40065;49.894;10.358;2022-07-03T10:18:12;1.20;;;0.70;;
54157;SDS011;40065;49.894;10.358;2022-07-03T10:23:15;2.65;;;0.73;;
54157;SDS011;40065;49.894;10.358;2022-07-03T10:28:18;1.88;;;0.40;;
54157;SDS011;40065;49.894;10.358;2022-07-03T10:33:20;1.48;;;0.60;;
54157;SDS011;40065;49.894;10.358;2022-07-03T10:38:25;1.27;;;0.63;;
54157;SDS011;40065;49.894;10.358;2022-07-03T10:43:38;1.10;;;0.55;;
54157;SDS011;40065;49.894;10.358;2022-07-03T10:49:12;1.33;;;0.60;;
54157;SDS011;40065;49.894;10.358;2022-07-03T10:59:21;1.25;;;0.52;;
54157;SDS011;40065;49.894;10.358;2022-07-03T11:09:25;1.30;;;0.60;;
54157;SDS011;40065;49.894;10.358;2022-07-03T11:14:27;0.70;;;0.47;;
54157;SDS011;40065;49.894;10.358;2022-07-03T11:19:30;0.70;;;0.57;;
54157;SDS011;40065;49.894;10.358;2022-07-03T11:24:41;1.80;;;0.60;;
54157;SDS011;40065;49.894;10.358;2022-07-03T11:29:54;1.90;;;0.50;;
54157;SDS011;40065;49.894;10.358;2022-07-03T11:34:57;2.22;;;0.60;;
54157;SDS011;40065;49.894;10.358;2022-07-03T11:40:02;2.42;;;0.60;;
54157;SDS011;40065;49.894;10.358;2022-07-03T11:45:06;2.17;;;0.70;;
54157;SDS011;40065;49.894;10.358;2022-07-03T11:50:10;2.53;;;0.68;;
54157;SDS011;40065;49.894;10.358;2022-07-03T11:55:12;2.15;;;0.63;;
54157;SDS011;40065;49.894;10.358;2022-07-03T12:00:14;1.10;;;0.50;;
54157;SDS011;40065;49.894;10.358;2022-07-03T12:10:35;0.70;;;0.40;;
54157;SDS011;40065;49.894;10.358;2022-07-03T12:15:41;1.25;;;0.50;;
54157;SDS011;40065;49.894;10.358;2022-07-03T12:20:43;0.70;;;0.40;;
54157;SDS011;40065;49.894;10.358;2022-07-03T12:25:45;0.50;;;0.40;;
54157;SDS011;40065;49.894;10.358;2022-07-03T12:30:47;0.82;;;0.45;;
54157;SDS011;40065;49.894;10.358;2022-07-03T12:36:05;0.93;;;0.55;;
54157;SDS011;40065;49.894;10.358;2022-07-03T12:41:09;1.45;;;0.85;;
54157;SDS011;40065;49.894;10.358;2022-07-03T12:46:17;2.17;;;0.43;;
54157;SDS011;40065;49.894;10.358;2022-07-03T12:51:54;1.10;;;0.50;;
54157;SDS011;40065;49.894;10.358;2022-07-03T12:57:06;1.27;;;0.40;;
54157;SDS011;40065;49.894;10.358;2022-07-03T13:02:28;7.60;;;0.70;;
54157;SDS011;40065;49.894;10.358;2022-07-03T13:12:32;3.33;;;0.60;;
54157;SDS011;40065;49.894;10.358;2022-07-03T13:22:56;0.90;;;0.40;;
54157;SDS011;40065;49.894;10.358;2022-07-03T13:28:07;1.38;;;0.50;;
54157;SDS011;40065;49.894;10.358;2022-07-03T13:33:13;0.98;;;0.35;;
54157;SDS011;40065;49.894;10.358;2022-07-03T13:38:15;0.95;;;0.40;;
54157;SDS011;40065;49.894;10.358;2022-07-03T13:43:17;0.40;;;0.20;;
54157;SDS011;40065;49.894;10.358;2022-07-03T13:48:19;1.25;;;0.30;;
54157;SDS011;40065;49.894;10.358;2022-07-03T13:53:20;2.40;;;0.40;;
54157;SDS011;40065;49.894;10.358;2022-07-03T13:58:22;1.58;;;0.32;;
54157;SDS011;40065;49.894;10.358;2022-07-03T14:03:24;2.67;;;0.30;;
54157;SDS011;40065;49.894;10.358;2022-07-03T14:08:26;0.70;;;0.40;;
54157;SDS011;40065;49.894;10.358;2022-07-03T14:13:28;1.85;;;0.30;;
54157;SDS011;40065;49.894;10.358;2022-07-03T14:18:30;0.47;;;0.30;;
54157;SDS011;40065;49.894;10.358;2022-07-03T14:23:31;2.45;;;0.40;;
54157;SDS011;40065;49.894;10.358;2022-07-03T14:33:54;1.05;;;0.30;;
54157;SDS011;40065;49.894;10.358;2022-07-03T14:38:56;1.13;;;0.40;;
54157;SDS011;40065;49.894;10.358;2022-07-03T14:43:58;2.17;;;0.20;;
54157;SDS011;40065;49.894;10.358;2022-07-03T14:49:00;4.30;;;0.40;;
54157;SDS011;40065;49.894;10.358;2022-07-03T14:54:02;0.47;;;0.28;;
54157;SDS011;40065;49.894;10.358;2022-07-03T14:59:05;1.05;;;0.40;;
54157;SDS011;40065;49.894;10.358;2022-07-03T15:04:13;0.98;;;0.82;;
54157;SDS011;40065;49.894;10.358;2022-07-03T15:09:24;2.67;;;0.40;;
54157;SDS011;40065;49.894;10.358;2022-07-03T15:14:33;0.90;;;0.40;;
54157;SDS011;40065;49.894;10.358;2022-07-03T15:19:42;1.13;;;0.30;;
54157;SDS011;40065;49.894;10.358;2022-07-03T15:24:51;3.38;;;0.40;;
54157;SDS011;40065;49.894;10.358;2022-07-03T15:29:53;0.73;;;0.32;;
54157;SDS011;40065;49.894;10.358;2022-07-03T15:51:02;0.95;;;0.40;;
54157;SDS011;40065;49.894;10.358;2022-07-03T15:56:14;1.55;;;0.30;;
54157;SDS011;40065;49.894;10.358;2022-07-03T16:01:20;0.65;;;0.20;;
54157;SDS011;40065;49.894;10.358;2022-07-03T16:06:44;0.68;;;0.30;;
54157;SDS011;40065;49.894;10.358;2022-07-03T16:11:47;1.08;;;0.45;;
54157;SDS011;40065;49.894;10.358;2022-07-03T16:16:51;0.95;;;0.43;;
54157;SDS011;40065;49.894;10.358;2022-07-03T16:21:53;0.98;;;0.50;;
54157;SDS011;40065;49.894;10.358;2022-07-03T16:26:56;1.90;;;0.40;;
54157;SDS011;40065;49.894;10.358;2022-07-03T16:32:01;0.93;;;0.50;;
54157;SDS011;40065;49.894;10.358;2022-07-03T16:37:07;1.38;;;0.50;;
54157;SDS011;40065;49.894;10.358;2022-07-03T16:42:10;1.05;;;0.60;;
54157;SDS011;40065;49.894;10.358;2022-07-03T16:47:15;2.75;;;0.60;;
54157;SDS011;40065;49.894;10.358;2022-07-03T16:52:17;1.92;;;0.70;;
54157;SDS011;40065;49.894;10.358;2022-07-03T16:57:24;1.55;;;0.70;;
54157;SDS011;40065;49.894;10.358;2022-07-03T17:02:27;1.27;;;0.70;;
54157;SDS011;40065;49.894;10.358;2022-07-03T17:12:32;0.63;;;0.40;;
54157;SDS011;40065;49.894;10.358;2022-07-03T17:17:34;2.97;;;0.60;;
54157;SDS011;40065;49.894;10.358;2022-07-03T17:22:37;1.20;;;0.50;;
54157;SDS011;40065;49.894;10.358;2022-07-03T17:27:42;1.88;;;0.60;;
54157;SDS011;40065;49.894;10.358;2022-07-03T17:32:43;2.22;;;0.43;;
54157;SDS011;40065;49.894;10.358;2022-07-03T17:37:48;1.73;;;0.38;;
54157;SDS011;40065;49.894;10.358;2022-07-03T17:42:50;3.08;;;0.60;;
54157;SDS011;40065;49.894;10.358;2022-07-03T17:47:53;1.10;;;0.40;;
54157;SDS011;40065;49.894;10.358;2022-07-03T17:52:56;0.82;;;0.30;;
54157;SDS011;40065;49.894;10.358;2022-07-03T17:57:58;2.05;;;0.28;;
54157;SDS011;40065;49.894;10.358;2022-07-03T18:03:01;0.88;;;0.30;;
54157;SDS011;40065;49.894;10.358;2022-07-03T18:08:13;0.88;;;0.40;;
54157;SDS011;40065;49.894;10.358;2022-07-03T18:23:37;1.30;;;0.40;;
54157;SDS011;40065;49.894;10.358;2022-07-03T18:28:44;1.15;;;0.40;;
54157;SDS011;40065;49.894;10.358;2022-07-03T18:33:47;1.87;;;0.50;;
54157;SDS011;40065;49.894;10.358;2022-07-03T18:38:51;1.25;;;0.40;;
54157;SDS011;40065;49.894;10.358;2022-07-03T18:43:55;1.20;;;0.50;;
54157;SDS011;40065;49.894;10.358;2022-07-03T18:48:59;0.85;;;0.30;;
54157;SDS011;40065;49.894;10.358;2022-07-03T18:59:11;2.05;;;0.50;;
54157;SDS011;40065;49.894;10.358;2022-07-03T19:09:34;1.48;;;0.50;;
54157;SDS011;40065;49.894;10.358;2022-07-03T19:14:53;1.48;;;0.60;;
54157;SDS011;40065;49.894;10.358;2022-07-03T19:20:00;1.27;;;0.60;;
54157;SDS011;40065;49.894;10.358;2022-07-03T19:25:09;1.00;;;0.60;;
54157;SDS011;40065;49.894;10.358;2022-07-03T19:30:14;0.93;;;0.32;;
54157;SDS011;40065;49.894;10.358;2022-07-03T19:35:17;0.90;;;0.50;;
54157;SDS011;40065;49.894;10.358;2022-07-03T19:45:22;1.88;;;0.75;;
54157;SDS011;40065;49.894;10.358;2022-07-03T19:50:26;1.60;;;0.80;;
54157;SDS011;40065;49.894;10.358;2022-07-03T19:55:27;1.60;;;0.60;;
54157;SDS011;40065;49.894;10.358;2022-07-03T20:00:29;1.27;;;0.60;;
54157;SDS011;40065;49.894;10.358;2022-07-03T20:05:31;1.30;;;0.70;;
54157;SDS011;40065;49.894;10.358;2022-07-03T20:10:33;2.53;;;0.70;;
54157;SDS011;40065;49.894;10.358;2022-07-03T20:15:35;1.15;;;0.60;;
54157;SDS011;40065;49.894;10.358;2022-07-03T20:20:37;2.15;;;0.98;;
54157;SDS011;40065;49.894;10.358;2022-07-03T20:25:39;0.80;;;0.60;;
54157;SDS011;40065;49.894;10.358;2022-07-03T20:30:42;1.98;;;0.60;;
54157;SDS011;40065;49.894;10.358;2022-07-03T20:35:44;1.10;;;0.45;;
54157;SDS011;40065;49.894;10.358;2022-07-03T20:40:46;4.78;;;0.50;;
54157;SDS011;40065;49.894;10.358;2022-07-03T20:45:48;1.92;;;0.90;;
54157;SDS011;40065;49.894;10.358;2022-07-03T20:50:50;0.80;;;0.50;;
54157;SDS011;40065;49.894;10.358;2022-07-03T20:56:04;1.45;;;0.70;;
54157;SDS011;40065;49.894;10.358;2022-07-03T21:01:06;1.25;;;0.40;;
54157;SDS011;40065;49.894;10.358;2022-07-03T21:06:08;3.63;;;1.08;;
54157;SDS011;40065;49.894;10.358;2022-07-03T21:11:23;2.55;;;0.70;;
54157;SDS011;40065;49.894;10.358;2022-07-03T21:16:42;1.83;;;0.60;;
54157;SDS011;40065;49.894;10.358;2022-07-03T21:21:46;1.25;;;0.60;;
54157;SDS011;40065;49.894;10.358;2022-07-03T21:26:49;0.80;;;0.40;;
54157;SDS011;40065;49.894;10.358;2022-07-03T21:31:52;2.50;;;0.50;;
54157;SDS011;40065;49.894;10.358;2022-07-03T21:36:55;1.97;;;0.80;;
54157;SDS011;40065;49.894;10.358;2022-07-03T21:41:58;0.88;;;0.50;;
54157;SDS011;40065;49.894;10.358;2022-07-03T21:47:00;1.00;;;0.43;;
54157;SDS011;40065;49.894;10.358;2022-07-03T21:52:01;2.25;;;0.50;;
54157;SDS011;40065;49.894;10.358;2022-07-03T21:57:03;1.10;;;0.60;;
54157;SDS011;40065;49.894;10.358;2022-07-03T22:02:05;0.88;;;0.50;;
54157;SDS011;40065;49.894;10.358;2022-07-03T22:07:07;1.30;;;0.70;;
54157;SDS011;40065;49.894;10.358;2022-07-03T22:12:09;1.15;;;0.60;;
54157;SDS011;40065;49.894;10.358;2022-07-03T22:17:31;1.23;;;0.70;;
54157;SDS011;40065;49.894;10.358;2022-07-03T22:22:34;0.73;;;0.60;;
54157;SDS011;40065;49.894;10.358;2022-07-03T22:27:37;2.38;;;0.80;;
54157;SDS011;40065;49.894;10.358;2022-07-03T22:32:40;1.40;;;0.70;;
54157;SDS011;40065;49.894;10.358;2022-07-03T22:37:43;1.48;;;0.60;;
54157;SDS011;40065;49.894;10.358;2022-07-03T22:42:46;1.70;;;0.73;;
54157;SDS011;40065;49.894;10.358;2022-07-03T22:47:49;1.40;;;0.70;;
54157;SDS011;40065;49.894;10.358;2022-07-03T22:52:51;1.17;;;0.70;;
54157;SDS011;40065;49.894;10.358;2022-07-03T22:57:53;1.55;;;0.60;;
54157;SDS011;40065;49.894;10.358;2022-07-03T23:02:54;1.50;;;0.77;;
54157;SDS011;40065;49.894;10.358;2022-07-03T23:07:56;1.20;;;0.57;;
54157;SDS011;40065;49.894;10.358;2022-07-03T23:12:58;0.98;;;0.57;;
54157;SDS011;40065;49.894;10.358;2022-07-03T23:18:00;1.20;;;0.70;;
54157;SDS011;40065;49.894;10.358;2022-07-03T23:23:01;2.90;;;0.80;;
54157;SDS011;40065;49.894;10.358;2022-07-03T23:28:03;1.40;;;0.60;;
54157;SDS011;40065;49.894;10.358;2022-07-03T23:33:05;1.13;;;0.73;;
54157;SDS011;40065;49.894;10.358;2022-07-03T23:38:07;1.20;;;0.70;;
54157;SDS011;40065;49.894;10.358;2022-07-03T23:43:09;1.27;;;0.60;;
54157;SDS011;40065;49.894;10.358;2022-07-03T23:48:10;0.85;;;0.50;;
54157;SDS011;40065;49.894;10.358;2022-07-03T23:53:32;0.80;;;0.50;;
54157;SDS011;40065;49.894;10.358;2022-07-03T23:58:34;1.02;;;0.60;;
